Terminal Aerodrome Forecast
Issued by NWS

Home | Current Version | Previous Version | Text Only | Print | Product List | Glossary On
Versions: 1 2 3 4 5 6 7 8 9 10 11 12 13 14 15 16 17 18 19
000
FTUS42 KTAE 291100
TAFDHN
TAF
KDHN 291131Z 2912/3012 35012KT P6SM OVC006
     FM291300 32008KT 4SM RA BR OVC006
     FM291800 32006KT P6SM OVC015
     FM300400 34003KT 5SM BR SCT006 OVC015
     FM300700 34006KT 6SM BR SCT003 BKN007=

USA.gov is the U.S. government's official web portal to all federal, state and local government web resources and services.